sensor_id;sensor_type;location;lat;lon;timestamp;P1;durP1;ratioP1;P2;durP2;ratioP2
77217;SDS011;66214;51.302;17.068;2023-03-26T00:01:12;6.40;;;2.50;;
77217;SDS011;66214;51.302;17.068;2023-03-26T00:03:41;6.10;;;2.80;;
77217;SDS011;66214;51.302;17.068;2023-03-26T00:06:14;5.20;;;2.00;;
77217;SDS011;66214;51.302;17.068;2023-03-26T00:08:43;5.60;;;2.00;;
77217;SDS011;66214;51.302;17.068;2023-03-26T00:11:12;5.90;;;2.00;;
77217;SDS011;66214;51.302;17.068;2023-03-26T00:13:41;4.90;;;2.00;;
77217;SDS011;66214;51.302;17.068;2023-03-26T00:16:10;6.00;;;2.00;;
77217;SDS011;66214;51.302;17.068;2023-03-26T00:18:40;4.40;;;1.80;;
77217;SDS011;66214;51.302;17.068;2023-03-26T00:21:09;8.20;;;3.20;;
77217;SDS011;66214;51.302;17.068;2023-03-26T00:23:38;6.40;;;2.60;;
77217;SDS011;66214;51.302;17.068;2023-03-26T00:26:04;6.90;;;2.70;;
77217;SDS011;66214;51.302;17.068;2023-03-26T00:28:37;4.60;;;1.60;;
77217;SDS011;66214;51.302;17.068;2023-03-26T00:31:08;3.90;;;1.70;;
77217;SDS011;66214;51.302;17.068;2023-03-26T00:33:37;5.50;;;1.90;;
77217;SDS011;66214;51.302;17.068;2023-03-26T00:36:08;3.60;;;1.40;;
77217;SDS011;66214;51.302;17.068;2023-03-26T00:38:37;4.80;;;1.90;;
77217;SDS011;66214;51.302;17.068;2023-03-26T00:41:07;6.30;;;1.80;;
77217;SDS011;66214;51.302;17.068;2023-03-26T00:43:44;4.90;;;2.00;;
77217;SDS011;66214;51.302;17.068;2023-03-26T00:46:11;4.20;;;1.90;;
77217;SDS011;66214;51.302;17.068;2023-03-26T00:48:38;4.40;;;1.60;;
77217;SDS011;66214;51.302;17.068;2023-03-26T00:51:09;4.00;;;1.70;;
77217;SDS011;66214;51.302;17.068;2023-03-26T00:53:36;6.80;;;2.00;;
77217;SDS011;66214;51.302;17.068;2023-03-26T00:56:07;4.70;;;1.80;;
77217;SDS011;66214;51.302;17.068;2023-03-26T00:58:35;5.60;;;2.00;;
77217;SDS011;66214;51.302;17.068;2023-03-26T01:01:05;7.60;;;1.90;;
77217;SDS011;66214;51.302;17.068;2023-03-26T01:03:35;4.70;;;1.70;;
77217;SDS011;66214;51.302;17.068;2023-03-26T01:06:27;5.30;;;2.10;;
77217;SDS011;66214;51.302;17.068;2023-03-26T01:09:01;3.60;;;1.40;;
77217;SDS011;66214;51.302;17.068;2023-03-26T01:11:32;6.10;;;1.60;;
77217;SDS011;66214;51.302;17.068;2023-03-26T01:14:10;3.70;;;1.40;;
77217;SDS011;66214;51.302;17.068;2023-03-26T01:16:42;5.30;;;1.50;;
77217;SDS011;66214;51.302;17.068;2023-03-26T01:19:20;3.60;;;1.40;;
77217;SDS011;66214;51.302;17.068;2023-03-26T01:22:07;4.90;;;1.50;;
77217;SDS011;66214;51.302;17.068;2023-03-26T01:24:38;5.40;;;1.60;;
77217;SDS011;66214;51.302;17.068;2023-03-26T01:29:54;7.90;;;1.60;;
77217;SDS011;66214;51.302;17.068;2023-03-26T01:32:37;6.80;;;1.60;;
77217;SDS011;66214;51.302;17.068;2023-03-26T01:35:28;4.80;;;1.60;;
77217;SDS011;66214;51.302;17.068;2023-03-26T01:46:26;2.80;;;1.10;;
77217;SDS011;66214;51.302;17.068;2023-03-26T01:48:53;5.00;;;1.60;;
77217;SDS011;66214;51.302;17.068;2023-03-26T01:51:34;3.10;;;1.50;;
77217;SDS011;66214;51.302;17.068;2023-03-26T01:54:03;4.10;;;1.50;;
77217;SDS011;66214;51.302;17.068;2023-03-26T01:59:30;9.80;;;2.20;;
77217;SDS011;66214;51.302;17.068;2023-03-26T02:04:49;3.90;;;1.40;;
77217;SDS011;66214;51.302;17.068;2023-03-26T02:10:39;4.10;;;1.30;;
77217;SDS011;66214;51.302;17.068;2023-03-26T02:13:07;2.30;;;1.10;;
77217;SDS011;66214;51.302;17.068;2023-03-26T02:15:34;4.90;;;1.50;;
77217;SDS011;66214;51.302;17.068;2023-03-26T02:18:00;3.90;;;1.50;;
77217;SDS011;66214;51.302;17.068;2023-03-26T02:20:29;4.30;;;1.80;;
77217;SDS011;66214;51.302;17.068;2023-03-26T02:22:56;3.90;;;1.50;;
77217;SDS011;66214;51.302;17.068;2023-03-26T02:25:23;4.50;;;2.10;;
77217;SDS011;66214;51.302;17.068;2023-03-26T02:27:51;3.70;;;1.50;;
77217;SDS011;66214;51.302;17.068;2023-03-26T02:30:22;3.80;;;1.40;;
77217;SDS011;66214;51.302;17.068;2023-03-26T02:32:54;3.70;;;1.70;;
77217;SDS011;66214;51.302;17.068;2023-03-26T02:35:24;5.20;;;1.50;;
77217;SDS011;66214;51.302;17.068;2023-03-26T02:37:50;4.70;;;1.60;;
77217;SDS011;66214;51.302;17.068;2023-03-26T02:40:17;5.80;;;1.80;;
77217;SDS011;66214;51.302;17.068;2023-03-26T02:42:46;3.10;;;1.80;;
77217;SDS011;66214;51.302;17.068;2023-03-26T02:45:13;4.60;;;1.50;;
77217;SDS011;66214;51.302;17.068;2023-03-26T02:47:40;5.80;;;1.70;;
77217;SDS011;66214;51.302;17.068;2023-03-26T02:50:08;6.40;;;1.90;;
77217;SDS011;66214;51.302;17.068;2023-03-26T02:52:36;4.50;;;1.80;;
77217;SDS011;66214;51.302;17.068;2023-03-26T02:55:03;5.10;;;1.80;;
77217;SDS011;66214;51.302;17.068;2023-03-26T02:57:30;4.10;;;1.70;;
77217;SDS011;66214;51.302;17.068;2023-03-26T02:59:56;4.90;;;1.80;;
77217;SDS011;66214;51.302;17.068;2023-03-26T03:02:22;3.80;;;1.40;;
77217;SDS011;66214;51.302;17.068;2023-03-26T03:04:50;4.60;;;1.60;;
77217;SDS011;66214;51.302;17.068;2023-03-26T03:07:17;4.70;;;1.70;;
77217;SDS011;66214;51.302;17.068;2023-03-26T03:09:43;7.70;;;2.00;;
77217;SDS011;66214;51.302;17.068;2023-03-26T03:12:09;3.70;;;1.50;;
77217;SDS011;66214;51.302;17.068;2023-03-26T03:14:36;4.30;;;1.10;;
77217;SDS011;66214;51.302;17.068;2023-03-26T03:17:02;5.40;;;1.60;;
77217;SDS011;66214;51.302;17.068;2023-03-26T03:19:29;4.50;;;1.70;;
77217;SDS011;66214;51.302;17.068;2023-03-26T03:21:55;5.70;;;1.60;;
77217;SDS011;66214;51.302;17.068;2023-03-26T03:24:21;4.20;;;1.50;;
77217;SDS011;66214;51.302;17.068;2023-03-26T03:26:48;4.20;;;2.00;;
77217;SDS011;66214;51.302;17.068;2023-03-26T03:29:15;4.20;;;1.40;;
77217;SDS011;66214;51.302;17.068;2023-03-26T03:31:42;4.90;;;1.30;;
77217;SDS011;66214;51.302;17.068;2023-03-26T03:34:08;3.00;;;1.30;;
77217;SDS011;66214;51.302;17.068;2023-03-26T03:36:35;4.50;;;1.40;;
77217;SDS011;66214;51.302;17.068;2023-03-26T03:39:03;5.00;;;1.40;;
77217;SDS011;66214;51.302;17.068;2023-03-26T03:41:30;5.60;;;2.00;;
77217;SDS011;66214;51.302;17.068;2023-03-26T03:43:56;3.50;;;1.60;;
77217;SDS011;66214;51.302;17.068;2023-03-26T03:46:24;5.50;;;1.80;;
77217;SDS011;66214;51.302;17.068;2023-03-26T03:48:51;5.40;;;2.00;;
77217;SDS011;66214;51.302;17.068;2023-03-26T03:51:17;3.80;;;1.20;;
77217;SDS011;66214;51.302;17.068;2023-03-26T03:53:44;3.10;;;1.30;;
77217;SDS011;66214;51.302;17.068;2023-03-26T03:56:11;4.00;;;1.30;;
77217;SDS011;66214;51.302;17.068;2023-03-26T03:58:39;3.50;;;1.30;;
77217;SDS011;66214;51.302;17.068;2023-03-26T04:01:06;5.90;;;2.00;;
77217;SDS011;66214;51.302;17.068;2023-03-26T04:03:33;3.40;;;1.20;;
77217;SDS011;66214;51.302;17.068;2023-03-26T04:06:05;4.70;;;2.00;;
77217;SDS011;66214;51.302;17.068;2023-03-26T04:08:32;4.90;;;1.90;;
77217;SDS011;66214;51.302;17.068;2023-03-26T04:10:59;3.90;;;1.70;;
77217;SDS011;66214;51.302;17.068;2023-03-26T04:13:26;5.70;;;1.80;;
77217;SDS011;66214;51.302;17.068;2023-03-26T04:15:52;2.20;;;1.10;;
77217;SDS011;66214;51.302;17.068;2023-03-26T04:18:19;3.40;;;1.50;;
77217;SDS011;66214;51.302;17.068;2023-03-26T04:20:47;4.40;;;1.20;;
77217;SDS011;66214;51.302;17.068;2023-03-26T04:23:16;4.70;;;1.70;;
77217;SDS011;66214;51.302;17.068;2023-03-26T04:25:47;6.00;;;1.80;;
77217;SDS011;66214;51.302;17.068;2023-03-26T04:28:28;3.30;;;1.30;;
77217;SDS011;66214;51.302;17.068;2023-03-26T04:30:58;4.40;;;1.60;;
77217;SDS011;66214;51.302;17.068;2023-03-26T04:33:28;7.00;;;1.90;;
77217;SDS011;66214;51.302;17.068;2023-03-26T04:35:56;3.50;;;1.50;;
77217;SDS011;66214;51.302;17.068;2023-03-26T04:38:30;3.70;;;1.40;;
77217;SDS011;66214;51.302;17.068;2023-03-26T04:41:01;4.00;;;1.40;;
77217;SDS011;66214;51.302;17.068;2023-03-26T04:43:27;6.20;;;2.10;;
77217;SDS011;66214;51.302;17.068;2023-03-26T04:45:55;5.30;;;2.00;;
77217;SDS011;66214;51.302;17.068;2023-03-26T04:48:21;5.60;;;1.70;;
77217;SDS011;66214;51.302;17.068;2023-03-26T04:50:48;3.70;;;1.20;;
77217;SDS011;66214;51.302;17.068;2023-03-26T04:53:17;4.50;;;1.40;;
77217;SDS011;66214;51.302;17.068;2023-03-26T04:56:15;5.30;;;1.60;;
77217;SDS011;66214;51.302;17.068;2023-03-26T04:58:45;3.80;;;1.30;;
77217;SDS011;66214;51.302;17.068;2023-03-26T05:01:13;7.30;;;1.60;;
77217;SDS011;66214;51.302;17.068;2023-03-26T05:03:42;3.80;;;1.30;;
77217;SDS011;66214;51.302;17.068;2023-03-26T05:06:12;3.40;;;1.10;;
77217;SDS011;66214;51.302;17.068;2023-03-26T05:08:38;6.50;;;2.00;;
77217;SDS011;66214;51.302;17.068;2023-03-26T05:11:09;3.50;;;1.20;;
77217;SDS011;66214;51.302;17.068;2023-03-26T05:13:37;4.40;;;1.80;;
77217;SDS011;66214;51.302;17.068;2023-03-26T05:16:04;5.80;;;1.70;;
77217;SDS011;66214;51.302;17.068;2023-03-26T05:18:31;7.40;;;2.10;;
77217;SDS011;66214;51.302;17.068;2023-03-26T05:20:58;5.40;;;1.60;;
77217;SDS011;66214;51.302;17.068;2023-03-26T05:23:24;6.10;;;1.90;;
77217;SDS011;66214;51.302;17.068;2023-03-26T05:25:51;5.50;;;2.20;;
77217;SDS011;66214;51.302;17.068;2023-03-26T05:28:18;4.30;;;1.60;;
77217;SDS011;66214;51.302;17.068;2023-03-26T05:30:45;6.20;;;1.90;;
77217;SDS011;66214;51.302;17.068;2023-03-26T05:33:12;5.30;;;1.60;;
77217;SDS011;66214;51.302;17.068;2023-03-26T05:35:38;6.40;;;2.00;;
77217;SDS011;66214;51.302;17.068;2023-03-26T05:38:05;8.40;;;2.70;;
77217;SDS011;66214;51.302;17.068;2023-03-26T05:40:32;4.30;;;1.60;;
77217;SDS011;66214;51.302;17.068;2023-03-26T05:42:58;4.50;;;1.80;;
77217;SDS011;66214;51.302;17.068;2023-03-26T05:45:24;5.60;;;1.80;;
77217;SDS011;66214;51.302;17.068;2023-03-26T05:47:51;5.70;;;2.00;;
77217;SDS011;66214;51.302;17.068;2023-03-26T05:50:19;7.80;;;2.30;;
77217;SDS011;66214;51.302;17.068;2023-03-26T05:52:46;4.90;;;2.20;;
77217;SDS011;66214;51.302;17.068;2023-03-26T05:55:12;5.10;;;1.40;;
77217;SDS011;66214;51.302;17.068;2023-03-26T05:57:39;5.50;;;2.60;;
77217;SDS011;66214;51.302;17.068;2023-03-26T06:00:07;5.70;;;1.90;;
77217;SDS011;66214;51.302;17.068;2023-03-26T06:02:36;8.80;;;2.10;;
77217;SDS011;66214;51.302;17.068;2023-03-26T06:05:02;7.10;;;2.30;;
77217;SDS011;66214;51.302;17.068;2023-03-26T06:07:29;5.10;;;2.00;;
77217;SDS011;66214;51.302;17.068;2023-03-26T06:09:56;4.40;;;1.90;;
77217;SDS011;66214;51.302;17.068;2023-03-26T06:12:22;5.40;;;2.40;;
77217;SDS011;66214;51.302;17.068;2023-03-26T06:14:49;8.40;;;2.10;;
77217;SDS011;66214;51.302;17.068;2023-03-26T06:17:15;4.10;;;1.80;;
77217;SDS011;66214;51.302;17.068;2023-03-26T06:19:41;7.40;;;2.00;;
77217;SDS011;66214;51.302;17.068;2023-03-26T06:22:08;6.60;;;1.70;;
77217;SDS011;66214;51.302;17.068;2023-03-26T06:24:34;4.90;;;1.60;;
77217;SDS011;66214;51.302;17.068;2023-03-26T06:27:01;6.60;;;1.90;;
77217;SDS011;66214;51.302;17.068;2023-03-26T06:29:28;4.70;;;1.50;;
77217;SDS011;66214;51.302;17.068;2023-03-26T06:31:54;8.00;;;2.30;;
77217;SDS011;66214;51.302;17.068;2023-03-26T06:34:21;5.20;;;1.60;;
77217;SDS011;66214;51.302;17.068;2023-03-26T06:36:47;6.50;;;2.30;;
77217;SDS011;66214;51.302;17.068;2023-03-26T06:39:14;4.90;;;1.70;;
77217;SDS011;66214;51.302;17.068;2023-03-26T06:41:41;10.00;;;3.30;;
77217;SDS011;66214;51.302;17.068;2023-03-26T06:44:07;4.10;;;1.70;;
77217;SDS011;66214;51.302;17.068;2023-03-26T06:46:33;5.50;;;2.60;;
77217;SDS011;66214;51.302;17.068;2023-03-26T06:49:00;7.10;;;2.30;;
77217;SDS011;66214;51.302;17.068;2023-03-26T06:51:26;6.70;;;2.50;;
77217;SDS011;66214;51.302;17.068;2023-03-26T06:53:53;6.50;;;2.30;;
77217;SDS011;66214;51.302;17.068;2023-03-26T06:56:19;6.70;;;1.50;;
77217;SDS011;66214;51.302;17.068;2023-03-26T06:58:46;7.90;;;2.40;;
77217;SDS011;66214;51.302;17.068;2023-03-26T07:01:12;7.80;;;2.20;;
77217;SDS011;66214;51.302;17.068;2023-03-26T07:03:39;5.30;;;1.50;;
77217;SDS011;66214;51.302;17.068;2023-03-26T07:06:06;8.90;;;2.80;;
77217;SDS011;66214;51.302;17.068;2023-03-26T07:08:33;6.70;;;2.50;;
77217;SDS011;66214;51.302;17.068;2023-03-26T07:10:59;6.80;;;3.00;;
77217;SDS011;66214;51.302;17.068;2023-03-26T07:13:26;6.00;;;2.30;;
77217;SDS011;66214;51.302;17.068;2023-03-26T07:15:52;7.50;;;3.10;;
77217;SDS011;66214;51.302;17.068;2023-03-26T07:18:19;6.30;;;2.50;;
77217;SDS011;66214;51.302;17.068;2023-03-26T07:20:46;6.30;;;2.50;;
77217;SDS011;66214;51.302;17.068;2023-03-26T07:23:13;7.50;;;2.80;;
77217;SDS011;66214;51.302;17.068;2023-03-26T07:25:46;5.30;;;1.70;;
77217;SDS011;66214;51.302;17.068;2023-03-26T07:28:23;6.30;;;2.80;;
77217;SDS011;66214;51.302;17.068;2023-03-26T07:31:15;9.40;;;2.70;;
77217;SDS011;66214;51.302;17.068;2023-03-26T07:36:48;10.20;;;3.20;;
77217;SDS011;66214;51.302;17.068;2023-03-26T07:39:51;12.70;;;3.70;;
77217;SDS011;66214;51.302;17.068;2023-03-26T07:42:44;17.70;;;5.20;;
77217;SDS011;66214;51.302;17.068;2023-03-26T07:45:41;10.10;;;2.70;;
77217;SDS011;66214;51.302;17.068;2023-03-26T07:48:21;6.30;;;2.70;;
77217;SDS011;66214;51.302;17.068;2023-03-26T07:50:55;11.20;;;3.10;;
77217;SDS011;66214;51.302;17.068;2023-03-26T07:53:23;10.80;;;3.20;;
77217;SDS011;66214;51.302;17.068;2023-03-26T07:56:36;8.30;;;2.50;;
77217;SDS011;66214;51.302;17.068;2023-03-26T07:58:58;10.40;;;3.50;;
77217;SDS011;66214;51.302;17.068;2023-03-26T08:05:04;9.30;;;2.80;;
77217;SDS011;66214;51.302;17.068;2023-03-26T08:10:33;12.80;;;4.00;;
77217;SDS011;66214;51.302;17.068;2023-03-26T08:16:11;11.30;;;3.60;;
77217;SDS011;66214;51.302;17.068;2023-03-26T08:19:31;12.60;;;3.90;;
77217;SDS011;66214;51.302;17.068;2023-03-26T08:21:57;11.90;;;4.30;;
77217;SDS011;66214;51.302;17.068;2023-03-26T08:27:22;10.30;;;2.50;;
77217;SDS011;66214;51.302;17.068;2023-03-26T08:32:30;8.10;;;2.40;;
77217;SDS011;66214;51.302;17.068;2023-03-26T08:34:57;8.60;;;3.00;;
77217;SDS011;66214;51.302;17.068;2023-03-26T08:37:25;11.00;;;3.40;;
77217;SDS011;66214;51.302;17.068;2023-03-26T08:39:52;9.60;;;2.90;;
77217;SDS011;66214;51.302;17.068;2023-03-26T08:55:26;8.30;;;3.00;;
77217;SDS011;66214;51.302;17.068;2023-03-26T09:09:22;8.80;;;3.00;;
77217;SDS011;66214;51.302;17.068;2023-03-26T09:12:12;8.50;;;3.20;;
77217;SDS011;66214;51.302;17.068;2023-03-26T09:15:15;8.00;;;3.20;;
77217;SDS011;66214;51.302;17.068;2023-03-26T09:18:09;9.00;;;3.70;;
77217;SDS011;66214;51.302;17.068;2023-03-26T09:26:28;5.10;;;1.60;;
77217;SDS011;66214;51.302;17.068;2023-03-26T09:37:27;8.00;;;2.70;;
77217;SDS011;66214;51.302;17.068;2023-03-26T09:40:18;6.50;;;2.20;;
77217;SDS011;66214;51.302;17.068;2023-03-26T09:42:55;6.60;;;2.20;;
77217;SDS011;66214;51.302;17.068;2023-03-26T09:48:37;8.00;;;2.40;;
77217;SDS011;66214;51.302;17.068;2023-03-26T09:57:19;3.10;;;1.20;;
77217;SDS011;66214;51.302;17.068;2023-03-26T10:00:26;5.50;;;1.80;;
77217;SDS011;66214;51.302;17.068;2023-03-26T10:06:11;2.90;;;1.30;;
77217;SDS011;66214;51.302;17.068;2023-03-26T10:18:01;4.70;;;2.00;;
77217;SDS011;66214;51.302;17.068;2023-03-26T10:21:06;4.00;;;1.60;;
77217;SDS011;66214;51.302;17.068;2023-03-26T10:24:00;4.70;;;2.00;;
77217;SDS011;66214;51.302;17.068;2023-03-26T10:26:38;5.20;;;1.30;;
77217;SDS011;66214;51.302;17.068;2023-03-26T10:38:21;5.00;;;1.90;;
77217;SDS011;66214;51.302;17.068;2023-03-26T10:41:14;5.20;;;1.70;;
77217;SDS011;66214;51.302;17.068;2023-03-26T10:49:40;5.40;;;1.90;;
77217;SDS011;66214;51.302;17.068;2023-03-26T10:55:43;4.60;;;1.60;;
77217;SDS011;66214;51.302;17.068;2023-03-26T10:58:17;5.20;;;2.20;;
77217;SDS011;66214;51.302;17.068;2023-03-26T11:01:04;3.40;;;1.60;;
77217;SDS011;66214;51.302;17.068;2023-03-26T11:09:38;4.80;;;2.10;;
77217;SDS011;66214;51.302;17.068;2023-03-26T11:23:39;3.40;;;1.30;;
77217;SDS011;66214;51.302;17.068;2023-03-26T11:35:04;4.50;;;1.50;;
77217;SDS011;66214;51.302;17.068;2023-03-26T11:37:50;4.20;;;1.70;;
77217;SDS011;66214;51.302;17.068;2023-03-26T11:40:26;4.80;;;1.60;;
77217;SDS011;66214;51.302;17.068;2023-03-26T11:42:59;4.90;;;1.80;;
77217;SDS011;66214;51.302;17.068;2023-03-26T11:45:32;3.30;;;1.60;;
77217;SDS011;66214;51.302;17.068;2023-03-26T11:50:46;4.70;;;2.10;;
77217;SDS011;66214;51.302;17.068;2023-03-26T11:53:19;5.00;;;1.80;;
77217;SDS011;66214;51.302;17.068;2023-03-26T11:55:56;4.40;;;1.60;;
77217;SDS011;66214;51.302;17.068;2023-03-26T11:58:37;6.30;;;2.40;;
77217;SDS011;66214;51.302;17.068;2023-03-26T12:01:24;4.70;;;2.00;;
77217;SDS011;66214;51.302;17.068;2023-03-26T12:04:02;5.10;;;2.00;;
77217;SDS011;66214;51.302;17.068;2023-03-26T12:06:31;5.50;;;2.10;;
77217;SDS011;66214;51.302;17.068;2023-03-26T12:08:59;7.20;;;2.80;;
77217;SDS011;66214;51.302;17.068;2023-03-26T12:11:28;7.70;;;2.60;;
77217;SDS011;66214;51.302;17.068;2023-03-26T12:14:01;8.40;;;2.50;;
77217;SDS011;66214;51.302;17.068;2023-03-26T12:16:29;5.40;;;2.00;;
77217;SDS011;66214;51.302;17.068;2023-03-26T12:21:24;8.10;;;4.00;;
77217;SDS011;66214;51.302;17.068;2023-03-26T12:24:04;11.00;;;3.60;;
77217;SDS011;66214;51.302;17.068;2023-03-26T12:26:42;7.20;;;2.50;;
77217;SDS011;66214;51.302;17.068;2023-03-26T12:29:16;4.70;;;1.70;;
77217;SDS011;66214;51.302;17.068;2023-03-26T12:32:01;6.40;;;2.90;;
77217;SDS011;66214;51.302;17.068;2023-03-26T12:34:33;6.70;;;2.90;;
77217;SDS011;66214;51.302;17.068;2023-03-26T12:37:02;8.70;;;3.30;;
77217;SDS011;66214;51.302;17.068;2023-03-26T12:42:11;9.30;;;2.80;;
77217;SDS011;66214;51.302;17.068;2023-03-26T12:44:52;7.60;;;3.00;;
77217;SDS011;66214;51.302;17.068;2023-03-26T12:47:29;6.70;;;2.10;;
77217;SDS011;66214;51.302;17.068;2023-03-26T12:49:57;4.50;;;1.70;;
77217;SDS011;66214;51.302;17.068;2023-03-26T12:58:31;4.60;;;1.60;;
77217;SDS011;66214;51.302;17.068;2023-03-26T13:06:56;5.60;;;1.60;;
77217;SDS011;66214;51.302;17.068;2023-03-26T13:09:35;7.90;;;2.30;;
77217;SDS011;66214;51.302;17.068;2023-03-26T13:15:43;8.30;;;2.60;;
77217;SDS011;66214;51.302;17.068;2023-03-26T13:18:18;7.70;;;2.00;;
77217;SDS011;66214;51.302;17.068;2023-03-26T13:20:58;4.10;;;1.40;;
77217;SDS011;66214;51.302;17.068;2023-03-26T13:23:35;4.40;;;1.60;;
77217;SDS011;66214;51.302;17.068;2023-03-26T13:32:11;7.80;;;2.90;;
77217;SDS011;66214;51.302;17.068;2023-03-26T13:37:55;7.00;;;2.70;;
77217;SDS011;66214;51.302;17.068;2023-03-26T13:49:03;7.90;;;1.90;;
77217;SDS011;66214;51.302;17.068;2023-03-26T13:51:55;3.30;;;1.30;;
77217;SDS011;66214;51.302;17.068;2023-03-26T13:54:32;4.10;;;1.20;;
77217;SDS011;66214;51.302;17.068;2023-03-26T13:57:08;3.40;;;1.50;;
77217;SDS011;66214;51.302;17.068;2023-03-26T14:00:15;6.50;;;1.60;;
77217;SDS011;66214;51.302;17.068;2023-03-26T14:02:46;3.70;;;1.40;;
77217;SDS011;66214;51.302;17.068;2023-03-26T14:08:24;3.20;;;1.30;;
77217;SDS011;66214;51.302;17.068;2023-03-26T14:11:56;4.60;;;1.50;;
77217;SDS011;66214;51.302;17.068;2023-03-26T14:14:05;6.50;;;2.50;;
77217;SDS011;66214;51.302;17.068;2023-03-26T14:16:47;6.70;;;2.30;;
77217;SDS011;66214;51.302;17.068;2023-03-26T14:27:15;3.50;;;1.40;;
77217;SDS011;66214;51.302;17.068;2023-03-26T14:33:21;4.30;;;1.50;;
77217;SDS011;66214;51.302;17.068;2023-03-26T14:36:00;3.80;;;2.00;;
77217;SDS011;66214;51.302;17.068;2023-03-26T14:38:59;6.30;;;2.40;;
77217;SDS011;66214;51.302;17.068;2023-03-26T14:41:51;7.10;;;2.20;;
77217;SDS011;66214;51.302;17.068;2023-03-26T14:52:49;9.40;;;3.00;;
77217;SDS011;66214;51.302;17.068;2023-03-26T15:01:21;6.70;;;2.20;;
77217;SDS011;66214;51.302;17.068;2023-03-26T15:07:22;5.90;;;2.30;;
77217;SDS011;66214;51.302;17.068;2023-03-26T15:10:41;6.30;;;2.50;;
77217;SDS011;66214;51.302;17.068;2023-03-26T15:33:51;5.10;;;1.90;;
77217;SDS011;66214;51.302;17.068;2023-03-26T15:36:36;5.60;;;1.90;;
77217;SDS011;66214;51.302;17.068;2023-03-26T15:42:29;3.80;;;1.40;;
77217;SDS011;66214;51.302;17.068;2023-03-26T15:58:51;6.50;;;2.80;;
77217;SDS011;66214;51.302;17.068;2023-03-26T16:07:13;10.00;;;3.80;;
77217;SDS011;66214;51.302;17.068;2023-03-26T16:09:58;10.50;;;5.10;;
77217;SDS011;66214;51.302;17.068;2023-03-26T16:15:52;15.00;;;9.20;;
77217;SDS011;66214;51.302;17.068;2023-03-26T16:18:35;15.60;;;8.30;;
77217;SDS011;66214;51.302;17.068;2023-03-26T16:24:16;20.90;;;10.00;;
77217;SDS011;66214;51.302;17.068;2023-03-26T16:32:38;7.00;;;3.00;;
77217;SDS011;66214;51.302;17.068;2023-03-26T16:37:49;5.80;;;2.40;;
77217;SDS011;66214;51.302;17.068;2023-03-26T16:40:32;6.50;;;2.70;;
77217;SDS011;66214;51.302;17.068;2023-03-26T16:55:18;9.30;;;3.00;;
77217;SDS011;66214;51.302;17.068;2023-03-26T17:01:27;6.60;;;3.20;;
77217;SDS011;66214;51.302;17.068;2023-03-26T17:04:20;5.50;;;2.20;;
77217;SDS011;66214;51.302;17.068;2023-03-26T17:12:41;7.80;;;2.90;;
77217;SDS011;66214;51.302;17.068;2023-03-26T17:18:30;8.60;;;3.00;;
77217;SDS011;66214;51.302;17.068;2023-03-26T17:21:23;6.20;;;2.70;;
77217;SDS011;66214;51.302;17.068;2023-03-26T17:24:46;8.20;;;5.30;;
77217;SDS011;66214;51.302;17.068;2023-03-26T17:33:34;7.20;;;2.50;;
77217;SDS011;66214;51.302;17.068;2023-03-26T17:41:06;8.10;;;3.30;;
77217;SDS011;66214;51.302;17.068;2023-03-26T17:43:44;7.90;;;3.40;;
77217;SDS011;66214;51.302;17.068;2023-03-26T17:49:12;14.90;;;6.50;;
77217;SDS011;66214;51.302;17.068;2023-03-26T17:51:51;12.80;;;6.50;;
77217;SDS011;66214;51.302;17.068;2023-03-26T17:54:46;17.30;;;5.60;;
77217;SDS011;66214;51.302;17.068;2023-03-26T17:57:30;11.20;;;4.70;;
77217;SDS011;66214;51.302;17.068;2023-03-26T18:00:05;7.70;;;3.90;;
77217;SDS011;66214;51.302;17.068;2023-03-26T18:02:39;9.50;;;4.30;;
77217;SDS011;66214;51.302;17.068;2023-03-26T18:05:11;19.60;;;9.70;;
77217;SDS011;66214;51.302;17.068;2023-03-26T18:13:24;11.90;;;5.70;;
77217;SDS011;66214;51.302;17.068;2023-03-26T18:18:53;25.00;;;12.80;;
77217;SDS011;66214;51.302;17.068;2023-03-26T18:21:30;25.30;;;13.10;;
77217;SDS011;66214;51.302;17.068;2023-03-26T18:24:00;31.60;;;15.70;;
77217;SDS011;66214;51.302;17.068;2023-03-26T18:26:37;30.10;;;16.60;;
77217;SDS011;66214;51.302;17.068;2023-03-26T18:34:37;19.90;;;9.30;;
77217;SDS011;66214;51.302;17.068;2023-03-26T18:37:18;16.10;;;7.60;;
77217;SDS011;66214;51.302;17.068;2023-03-26T18:40:08;8.80;;;3.50;;
77217;SDS011;66214;51.302;17.068;2023-03-26T18:42:40;7.70;;;2.90;;
77217;SDS011;66214;51.302;17.068;2023-03-26T18:45:25;7.80;;;3.90;;
77217;SDS011;66214;51.302;17.068;2023-03-26T18:48:05;9.60;;;4.20;;
77217;SDS011;66214;51.302;17.068;2023-03-26T18:50:39;9.20;;;4.10;;
77217;SDS011;66214;51.302;17.068;2023-03-26T18:53:21;9.70;;;4.80;;
77217;SDS011;66214;51.302;17.068;2023-03-26T18:55:49;11.00;;;5.40;;
77217;SDS011;66214;51.302;17.068;2023-03-26T18:58:28;13.10;;;5.90;;
77217;SDS011;66214;51.302;17.068;2023-03-26T19:01:07;12.10;;;6.70;;
77217;SDS011;66214;51.302;17.068;2023-03-26T19:03:39;12.50;;;5.70;;
77217;SDS011;66214;51.302;17.068;2023-03-26T19:06:10;11.90;;;5.80;;
77217;SDS011;66214;51.302;17.068;2023-03-26T19:08:38;13.40;;;7.10;;
77217;SDS011;66214;51.302;17.068;2023-03-26T19:11:09;16.20;;;7.30;;
77217;SDS011;66214;51.302;17.068;2023-03-26T19:13:38;14.50;;;7.10;;
77217;SDS011;66214;51.302;17.068;2023-03-26T19:16:20;13.90;;;7.40;;
77217;SDS011;66214;51.302;17.068;2023-03-26T19:18:49;20.00;;;9.10;;
77217;SDS011;66214;51.302;17.068;2023-03-26T19:21:16;19.20;;;10.40;;
77217;SDS011;66214;51.302;17.068;2023-03-26T19:23:45;19.20;;;10.20;;
77217;SDS011;66214;51.302;17.068;2023-03-26T19:26:12;19.40;;;10.50;;
77217;SDS011;66214;51.302;17.068;2023-03-26T19:28:42;21.10;;;11.60;;
77217;SDS011;66214;51.302;17.068;2023-03-26T19:33:41;23.10;;;11.60;;
77217;SDS011;66214;51.302;17.068;2023-03-26T19:41:31;17.30;;;8.10;;
77217;SDS011;66214;51.302;17.068;2023-03-26T19:44:04;18.80;;;8.80;;
77217;SDS011;66214;51.302;17.068;2023-03-26T19:46:43;21.50;;;9.30;;
77217;SDS011;66214;51.302;17.068;2023-03-26T19:49:30;19.90;;;8.60;;
77217;SDS011;66214;51.302;17.068;2023-03-26T19:52:25;21.80;;;9.20;;
77217;SDS011;66214;51.302;17.068;2023-03-26T19:57:35;16.20;;;8.10;;
77217;SDS011;66214;51.302;17.068;2023-03-26T20:00:04;16.40;;;7.80;;
77217;SDS011;66214;51.302;17.068;2023-03-26T20:02:42;12.40;;;6.30;;
77217;SDS011;66214;51.302;17.068;2023-03-26T20:05:30;15.30;;;7.70;;
77217;SDS011;66214;51.302;17.068;2023-03-26T20:07:59;13.60;;;6.70;;
77217;SDS011;66214;51.302;17.068;2023-03-26T20:10:31;17.30;;;7.20;;
77217;SDS011;66214;51.302;17.068;2023-03-26T20:12:57;13.10;;;7.20;;
77217;SDS011;66214;51.302;17.068;2023-03-26T20:15:27;10.80;;;5.70;;
77217;SDS011;66214;51.302;17.068;2023-03-26T20:17:56;11.60;;;5.00;;
77217;SDS011;66214;51.302;17.068;2023-03-26T20:20:24;11.50;;;5.60;;
77217;SDS011;66214;51.302;17.068;2023-03-26T20:22:53;11.50;;;5.60;;
77217;SDS011;66214;51.302;17.068;2023-03-26T20:25:23;10.10;;;4.50;;
77217;SDS011;66214;51.302;17.068;2023-03-26T20:27:52;11.20;;;5.60;;
77217;SDS011;66214;51.302;17.068;2023-03-26T20:30:23;14.50;;;6.20;;
77217;SDS011;66214;51.302;17.068;2023-03-26T20:32:51;15.80;;;7.10;;
77217;SDS011;66214;51.302;17.068;2023-03-26T20:35:21;12.70;;;7.30;;
77217;SDS011;66214;51.302;17.068;2023-03-26T20:37:50;12.80;;;6.80;;
77217;SDS011;66214;51.302;17.068;2023-03-26T20:40:18;12.20;;;6.40;;
77217;SDS011;66214;51.302;17.068;2023-03-26T20:42:45;16.80;;;6.50;;
77217;SDS011;66214;51.302;17.068;2023-03-26T20:45:18;11.60;;;5.40;;